Time;durP1;ratioP1;P1;durP2;ratioP2;P2;SDS_P1;SDS_P2;PMS_P1;PMS_P2;Temp;Humidity;BMP_temperature;BMP_pressure;BME280_temperature;BME280_humidity;BME280_pressure;Samples;Min_cycle;Max_cycle;Signal;HPM_P1;HPM_P2
2022/01/30 00:02:02;;;;;;;1999.90;999.90;;;;;;;-0.22;64.80;95328.56;5012739;28;20271;-86
2022/01/30 00:04:27;;;;;;;1999.90;999.90;;;;;;;-0.59;65.06;95256.75;5012730;28;20638;-87
2022/01/30 00:06:53;;;;;;;1999.90;999.90;;;;;;;-0.50;65.05;95275.84;5012735;28;20180;-87
2022/01/30 00:09:21;;;;;;;1999.90;999.90;;;;;;;-0.70;65.29;95248.31;5013971;28;20180;-88
2022/01/30 00:11:53;;;;;;;1999.90;999.90;;;;;;;-0.74;64.72;95241.78;5022699;28;20185;-87
2022/01/30 00:14:20;;;;;;;1999.90;999.90;;;;;;;-0.25;65.35;95313.28;5005192;28;20187;-87
2022/01/30 00:16:48;;;;;;;1999.90;999.90;;;;;;;-0.83;65.09;95227.88;5027864;28;20639;-87
2022/01/30 00:19:26;;;;;;;1999.90;999.90;;;;;;;-0.49;65.48;95280.06;5011264;28;20173;-87
2022/01/30 00:22:02;;;;;;;1999.90;999.90;;;;;;;-0.71;65.01;95239.75;5012163;28;20180;-87
2022/01/30 00:24:43;;;;;;;1999.90;999.90;;;;;;;-1.03;65.61;95228.75;5011925;28;20208;-87
2022/01/30 00:27:15;;;;;;;1524.87;736.67;;;;;;;-0.95;66.25;95268.50;5011081;28;20180;-87
2022/01/30 00:29:41;;;;;;;505.00;246.13;;;;;;;-1.32;67.21;95218.34;5017031;28;20180;-87
2022/01/30 00:32:07;;;;;;;1111.17;550.43;;;;;;;-0.81;67.40;95288.81;5011044;28;20176;-87
2022/01/30 00:34:32;;;;;;;1056.97;585.70;;;;;;;-0.99;67.94;95261.16;5010790;28;20168;-87
2022/01/30 00:37:00;;;;;;;1999.90;999.90;;;;;;;-1.07;67.50;95241.13;5010991;28;20178;-87
2022/01/30 00:39:25;;;;;;;994.40;527.17;;;;;;;-1.24;67.85;95209.00;5012134;28;20183;-86
2022/01/30 00:41:51;;;;;;;1044.57;519.63;;;;;;;-1.00;67.45;95233.69;5010805;28;20176;-86
2022/01/30 00:44:16;;;;;;;1100.13;577.00;;;;;;;-0.87;67.11;95231.69;5012053;28;20195;-87
2022/01/30 00:46:44;;;;;;;973.60;496.10;;;;;;;-1.23;66.79;95182.25;5010918;28;20184;-87
2022/01/30 00:49:10;;;;;;;929.33;482.37;;;;;;;-1.03;66.84;95221.00;5010919;28;20179;-86
2022/01/30 00:51:37;;;;;;;1544.70;743.30;;;;;;;-1.19;66.38;95206.00;5010482;28;20176;-86
2022/01/30 00:54:03;;;;;;;582.60;268.70;;;;;;;-0.77;66.73;95266.91;5009512;28;20226;-86
2022/01/30 00:56:28;;;;;;;1999.90;999.90;;;;;;;-1.45;66.23;95168.69;5012133;28;20168;-86
2022/01/30 00:58:54;;;;;;;1012.70;579.27;;;;;;;-1.46;67.38;95190.28;5010615;28;20670;-86
2022/01/30 01:01:19;;;;;;;620.17;335.87;;;;;;;-1.49;67.61;95180.22;5010443;28;20164;-87
2022/01/30 01:03:44;;;;;;;1033.83;602.57;;;;;;;-1.77;68.11;95177.38;5010434;28;20294;-87
2022/01/30 01:06:10;;;;;;;1577.97;812.47;;;;;;;-1.35;68.20;95219.41;5012250;28;20175;-86
2022/01/30 01:08:48;;;;;;;693.23;591.40;;;;;;;-1.77;68.22;95173.97;5010456;28;20632;-87
2022/01/30 01:24:36;;;;;;;622.33;566.77;;;;;;;-2.05;71.14;95162.56;5011489;28;20605;-87
2022/01/30 01:27:02;;;;;;;598.90;542.27;;;;;;;-2.05;71.06;95165.94;5008441;28;20177;-86
2022/01/30 01:29:27;;;;;;;1064.77;692.70;;;;;;;-2.31;71.86;95141.50;5011251;28;20176;-86
2022/01/30 01:31:53;;;;;;;1178.57;646.93;;;;;;;-2.33;72.26;95169.97;5010148;28;20194;-86
2022/01/30 01:36:43;;;;;;;1999.90;999.90;;;;;;;-2.49;72.69;95130.09;5011117;28;20175;-87
2022/01/30 01:39:09;;;;;;;503.40;302.83;;;;;;;-2.40;73.56;95173.16;5011815;28;20548;-86
2022/01/30 01:41:36;;;;;;;1999.90;999.90;;;;;;;-2.54;74.42;95171.72;5011411;28;20211;-86
2022/01/30 01:44:02;;;;;;;1999.90;999.90;;;;;;;-2.58;74.60;95161.78;5008956;28;20227;-86
2022/01/30 01:46:29;;;;;;;1999.90;999.90;;;;;;;-2.70;74.45;95120.63;5011100;28;20199;-86
2022/01/30 01:48:55;;;;;;;924.83;319.60;;;;;;;-2.55;73.89;95125.47;5010081;28;20180;-87
2022/01/30 01:51:24;;;;;;;1999.90;999.90;;;;;;;-2.18;73.73;95173.06;5010443;28;20172;-87
2022/01/30 01:53:52;;;;;;;1999.90;999.90;;;;;;;-2.39;73.60;95129.25;5010060;28;20625;-86
2022/01/30 01:56:19;;;;;;;1999.90;999.90;;;;;;;-2.34;73.09;95103.09;5010643;28;20180;-86
2022/01/30 01:58:44;;;;;;;1999.90;999.90;;;;;;;-2.32;72.48;95081.41;5010131;28;20172;-86
2022/01/30 02:01:10;;;;;;;1999.90;999.90;;;;;;;-2.19;72.31;95070.91;5009794;28;20172;-85
2022/01/30 02:03:40;;;;;;;898.60;441.57;;;;;;;-2.05;71.39;95075.69;5025122;28;20197;-86
2022/01/30 02:06:09;;;;;;;1999.90;999.90;;;;;;;-2.02;70.93;95083.19;5011298;28;20176;-86
2022/01/30 02:08:38;;;;;;;1999.90;999.90;;;;;;;-2.03;71.08;95107.34;5011026;28;20169;-86
2022/01/30 02:11:29;;;;;;;1999.90;999.90;;;;;;;-2.32;71.54;95080.56;5011280;28;20161;-86
2022/01/30 02:26:59;;;;;;;799.33;345.50;;;;;;;-1.50;70.33;95161.34;5014673;28;20172;-86
2022/01/30 02:29:25;;;;;;;1999.90;999.90;;;;;;;-1.77;70.23;95124.97;5013107;28;20168;-86
2022/01/30 02:31:55;;;;;;;1999.90;999.90;;;;;;;-2.33;70.27;95051.41;5013222;28;20202;-85
2022/01/30 02:34:28;;;;;;;1999.90;999.90;;;;;;;-1.73;70.85;95141.84;5012108;28;20169;-86
2022/01/30 02:36:54;;;;;;;1999.90;999.90;;;;;;;-2.14;70.64;95060.19;5022762;28;20184;-85
2022/01/30 02:39:21;;;;;;;1999.90;999.90;;;;;;;-2.05;70.55;95070.53;5014203;28;20259;-86
2022/01/30 02:41:47;;;;;;;1999.90;999.90;;;;;;;-1.74;70.28;95124.72;5014128;28;20160;-85
2022/01/30 02:44:19;;;;;;;730.10;335.77;;;;;;;-2.36;70.55;95045.72;5013968;28;20643;-86
2022/01/30 02:46:48;;;;;;;1999.90;999.90;;;;;;;-2.33;70.58;95064.28;5012822;28;20733;-85
2022/01/30 02:51:48;;;;;;;1999.90;999.90;;;;;;;-1.93;71.38;95105.63;5014486;28;20172;-85
2022/01/30 02:54:14;;;;;;;1999.90;999.90;;;;;;;-2.25;71.06;95034.50;5012730;28;20169;-85
2022/01/30 02:56:41;;;;;;;1999.90;999.90;;;;;;;-2.12;70.51;95033.34;5014118;28;20175;-85
2022/01/30 02:59:06;;;;;;;1031.33;472.93;;;;;;;-2.01;70.25;95035.84;5012592;28;20246;-85
2022/01/30 03:01:33;;;;;;;1999.90;999.90;;;;;;;-2.08;69.48;95021.00;5012591;28;20669;-85
2022/01/30 03:03:59;;;;;;;1999.90;999.90;;;;;;;-1.67;69.66;95087.13;5013561;28;20553;-86
2022/01/30 03:06:26;;;;;;;1999.90;999.90;;;;;;;-1.99;69.71;95018.44;5013760;28;20179;-86
2022/01/30 03:08:52;;;;;;;1102.27;565.73;;;;;;;-1.70;69.23;95059.00;5014288;28;20690;-86
2022/01/30 03:11:17;;;;;;;1172.27;604.67;;;;;;;-1.88;68.69;95045.91;5013729;28;20168;-86
2022/01/30 03:13:43;;;;;;;948.40;322.63;;;;;;;-2.30;69.56;95027.97;5013710;28;20238;-86
2022/01/30 03:16:08;;;;;;;1106.60;527.10;;;;;;;-2.22;69.99;95044.53;5013860;28;20176;-86
2022/01/30 03:18:33;;;;;;;1999.90;999.90;;;;;;;-1.81;69.95;95110.69;5028980;28;20183;-85
2022/01/30 03:20:59;;;;;;;1999.90;999.90;;;;;;;-1.75;70.26;95102.44;5013532;28;20172;-86
2022/01/30 03:23:25;;;;;;;1317.20;583.50;;;;;;;-2.06;69.70;95052.63;5028475;28;20632;-86
2022/01/30 03:25:56;;;;;;;1705.07;825.70;;;;;;;-2.00;69.77;95067.59;5011248;28;20763;-85
2022/01/30 03:28:22;;;;;;;1999.90;999.90;;;;;;;-2.28;69.84;95025.25;5011996;28;20169;-85
2022/01/30 03:30:52;;;;;;;1999.90;999.90;;;;;;;-2.20;70.69;95058.13;5011900;28;20180;-85
2022/01/30 03:33:18;;;;;;;1999.90;999.90;;;;;;;-2.23;71.01;95066.91;5014996;28;20161;-85
2022/01/30 03:35:43;;;;;;;1999.90;999.90;;;;;;;-2.63;71.06;95012.75;5028373;28;20172;-85
2022/01/30 03:38:09;;;;;;;1999.90;999.90;;;;;;;-2.41;71.41;95042.69;5012954;28;20207;-86
2022/01/30 03:40:34;;;;;;;780.83;367.47;;;;;;;-2.23;71.37;95077.25;5011865;28;20206;-86
2022/01/30 03:42:59;;;;;;;1999.90;999.90;;;;;;;-2.47;71.24;95030.31;5012863;28;20200;-87
2022/01/30 03:45:25;;;;;;;1999.90;999.90;;;;;;;-2.38;70.90;95039.84;5013035;28;20187;-86
2022/01/30 03:47:55;;;;;;;1489.97;736.50;;;;;;;-2.33;71.13;95029.97;5013028;28;20180;-85
2022/01/30 03:50:21;;;;;;;1999.90;999.90;;;;;;;-2.03;70.23;95073.81;5028339;28;20168;-85
2022/01/30 03:52:46;;;;;;;1999.90;999.90;;;;;;;-2.33;69.97;95020.47;5011577;28;20260;-85
2022/01/30 03:55:12;;;;;;;1999.90;999.90;;;;;;;-2.01;70.25;95079.66;5030292;28;20176;-85
2022/01/30 03:57:37;;;;;;;1999.90;999.90;;;;;;;-2.24;70.37;95039.50;5011679;28;20200;-86
2022/01/30 04:00:05;;;;;;;1999.90;999.90;;;;;;;-2.15;70.13;95041.31;5013199;28;20615;-85
2022/01/30 04:02:30;;;;;;;1999.90;999.90;;;;;;;-2.08;70.10;95033.91;5012837;28;20164;-86
2022/01/30 04:04:55;;;;;;;1999.90;999.90;;;;;;;-2.19;69.99;95011.59;5012817;28;20296;-86
2022/01/30 04:07:21;;;;;;;1999.90;999.90;;;;;;;-1.67;70.26;95081.97;5012914;28;20252;-85
2022/01/30 04:09:47;;;;;;;1999.90;999.90;;;;;;;-1.89;69.89;95023.63;5012483;28;20180;-84
2022/01/30 04:12:13;;;;;;;1671.53;811.67;;;;;;;-2.02;68.84;94990.34;5011237;28;20168;-84
2022/01/30 04:14:39;;;;;;;1070.13;552.17;;;;;;;-1.99;68.26;95002.19;5013035;28;20172;-84
2022/01/30 04:17:08;;;;;;;654.87;307.50;;;;;;;-1.89;68.67;95023.63;5011482;28;20192;-84
2022/01/30 04:19:33;;;;;;;1526.30;749.60;;;;;;;-2.05;68.68;94982.06;5012592;28;20214;-84
2022/01/30 04:21:59;;;;;;;1537.77;777.70;;;;;;;-2.04;68.79;94986.28;5012455;28;20172;-86
2022/01/30 04:24:24;;;;;;;1513.03;754.43;;;;;;;-2.10;68.33;94985.03;5012301;28;20216;-86
2022/01/30 04:26:49;;;;;;;597.80;282.43;;;;;;;-2.19;69.30;94979.84;5016746;28;20195;-86
2022/01/30 04:29:15;;;;;;;1620.93;792.03;;;;;;;-2.13;69.06;94985.28;5012469;28;20180;-85
2022/01/30 04:31:42;;;;;;;1999.90;999.90;;;;;;;-2.10;69.11;94979.06;5011011;28;20168;-85
2022/01/30 04:34:08;;;;;;;1114.97;574.20;;;;;;;-2.16;69.33;94958.97;5012056;28;20172;-86
2022/01/30 04:36:40;;;;;;;1593.77;814.13;;;;;;;-2.30;69.27;94921.47;5011979;28;20226;-86
2022/01/30 04:42:18;;;;;;;1570.97;776.77;;;;;;;-2.25;69.18;94970.06;5012465;28;20255;-86
2022/01/30 05:05:48;;;;;;;1563.43;762.00;;;;;;;-1.84;69.49;95005.19;4986584;28;20275;-86
2022/01/30 05:08:13;;;;;;;856.37;345.93;;;;;;;-1.76;68.58;95010.50;5010910;28;20670;-87
2022/01/30 05:10:39;;;;;;;1571.53;782.27;;;;;;;-1.88;69.03;94978.03;5007723;28;20259;-87
2022/01/30 05:13:08;;;;;;;1588.63;772.10;;;;;;;-1.83;68.99;94986.22;5010593;28;20175;-87
2022/01/30 05:15:34;;;;;;;1540.00;774.10;;;;;;;-1.82;69.57;94987.84;5001426;28;20180;-86
2022/01/30 05:18:00;;;;;;;753.97;380.27;;;;;;;-2.10;69.46;94923.16;5010525;28;20255;-87
2022/01/30 05:20:26;;;;;;;1201.90;591.73;;;;;;;-2.05;69.81;94928.72;5011852;28;20255;-87
2022/01/30 05:22:51;;;;;;;1070.67;559.00;;;;;;;-2.08;70.47;94892.09;5009622;28;20196;-87
2022/01/30 05:25:17;;;;;;;1165.67;531.50;;;;;;;-1.91;70.45;94887.09;5010229;28;20278;-86
2022/01/30 05:27:42;;;;;;;1145.70;529.23;;;;;;;-1.72;69.29;94906.09;5010518;28;20169;-87
2022/01/30 05:30:08;;;;;;;1999.90;999.90;;;;;;;-1.55;69.33;94918.31;5011472;28;20172;-86
2022/01/30 05:32:34;;;;;;;1045.93;528.70;;;;;;;-1.51;69.16;94940.34;5011770;28;20561;-87
2022/01/30 05:35:00;;;;;;;1999.90;999.90;;;;;;;-1.74;69.39;94895.13;5010415;28;20622;-87
2022/01/30 05:37:25;;;;;;;1999.90;999.90;;;;;;;-1.61;69.41;94903.38;5011763;28;20180;-87
2022/01/30 05:39:51;;;;;;;1999.90;999.90;;;;;;;-1.68;69.42;94881.69;5011919;28;20227;-87
2022/01/30 05:42:19;;;;;;;1999.90;999.90;;;;;;;-1.58;69.10;94879.91;5010390;28;20165;-87
2022/01/30 05:48:00;;;;;;;1231.47;617.17;;;;;;;-0.84;68.41;95011.78;4967568;28;20185;-87
2022/01/30 05:50:26;;;;;;;1183.10;576.50;;;;;;;-1.11;67.74;94963.41;5004582;28;20618;-86
2022/01/30 05:52:51;;;;;;;631.90;285.43;;;;;;;-0.81;67.76;94994.25;5014923;28;20165;-86
2022/01/30 05:55:17;;;;;;;1641.37;775.87;;;;;;;-0.85;67.99;94982.56;5014810;28;20670;-85
2022/01/30 05:57:42;;;;;;;719.90;291.17;;;;;;;-0.87;67.39;94978.50;5013315;28;20176;-85
2022/01/30 06:00:13;;;;;;;662.17;326.13;;;;;;;-1.21;68.81;94942.75;5013173;28;20238;-84
2022/01/30 06:02:40;;;;;;;731.37;335.20;;;;;;;-1.21;69.26;94947.16;5014693;28;20248;-85
2022/01/30 06:05:07;;;;;;;1126.27;539.83;;;;;;;-0.88;69.58;94974.28;5014734;28;20176;-85
2022/01/30 06:07:32;;;;;;;1146.33;554.10;;;;;;;-0.95;69.05;94934.47;5014727;28;20234;-85
2022/01/30 06:09:58;;;;;;;1999.90;999.90;;;;;;;-0.95;68.30;94952.56;5014552;28;20566;-85
2022/01/30 06:12:23;;;;;;;1999.90;999.90;;;;;;;-1.25;69.63;94925.94;5014699;28;20183;-85
2022/01/30 06:14:49;;;;;;;1999.90;999.90;;;;;;;-1.04;69.68;94930.94;5014144;28;20208;-85
2022/01/30 06:17:15;;;;;;;1999.90;999.90;;;;;;;-1.26;68.60;94877.00;5014369;28;20200;-85
2022/01/30 06:19:41;;;;;;;1321.47;581.67;;;;;;;-1.21;68.09;94867.88;5014333;28;20180;-84
2022/01/30 06:22:06;;;;;;;1544.90;754.27;;;;;;;-1.21;68.18;94836.91;5014585;28;20255;-85
2022/01/30 06:24:31;;;;;;;1999.90;999.90;;;;;;;-1.05;68.81;94872.50;5014125;28;20227;-85
2022/01/30 06:26:57;;;;;;;1999.90;999.90;;;;;;;-1.18;67.73;94864.22;5028149;28;20564;-85
2022/01/30 06:29:22;;;;;;;1193.43;567.17;;;;;;;-1.10;68.23;94886.75;5014413;28;20172;-85
2022/01/30 06:31:48;;;;;;;1999.90;999.90;;;;;;;-1.27;68.49;94824.56;5013021;28;20177;-85
2022/01/30 06:34:13;;;;;;;1274.37;613.70;;;;;;;-0.93;67.82;94857.63;5014364;28;20165;-85
2022/01/30 06:36:38;;;;;;;1596.43;764.27;;;;;;;-0.83;67.33;94861.00;5029029;28;20176;-85
2022/01/30 06:39:04;;;;;;;1625.57;787.47;;;;;;;-0.96;67.62;94832.91;5013994;28;20187;-85
2022/01/30 06:41:29;;;;;;;1999.90;999.90;;;;;;;-0.45;66.89;94919.50;5013025;28;20684;-85
2022/01/30 06:43:55;;;;;;;1584.90;811.20;;;;;;;-0.60;66.87;94889.88;5012363;28;20204;-86
2022/01/30 06:46:20;;;;;;;1656.50;804.73;;;;;;;-0.47;67.29;94924.81;5014006;28;20242;-85
2022/01/30 06:48:46;;;;;;;1567.80;779.57;;;;;;;-0.29;66.71;94955.06;5014219;28;20303;-85
2022/01/30 06:51:11;;;;;;;1999.90;999.90;;;;;;;-0.67;66.30;94879.28;5013902;28;20572;-84
2022/01/30 06:53:37;;;;;;;1999.90;999.90;;;;;;;-0.50;65.86;94883.72;5013774;28;20176;-84
2022/01/30 06:56:02;;;;;;;1999.90;999.90;;;;;;;-0.11;65.58;94943.03;5013872;28;20173;-85
2022/01/30 06:58:28;;;;;;;1168.53;697.10;;;;;;;-1.09;66.30;94798.00;5012216;28;20245;-84
2022/01/30 07:00:56;;;;;;;1999.90;999.90;;;;;;;-0.86;66.87;94858.69;5028907;28;20187;-84
2022/01/30 07:03:21;;;;;;;1602.10;800.13;;;;;;;-1.07;67.55;94834.84;5013764;28;20185;-84
2022/01/30 07:05:47;;;;;;;1576.00;771.10;;;;;;;-0.54;68.38;94923.75;5013432;28;20180;-84
2022/01/30 07:08:12;;;;;;;1217.80;574.30;;;;;;;-0.84;67.89;94854.19;5012323;28;20172;-84
2022/01/30 07:10:39;;;;;;;1076.53;541.23;;;;;;;-0.57;68.09;94920.63;5013796;28;20542;-84
2022/01/30 07:13:06;;;;;;;1999.90;999.90;;;;;;;-0.97;68.32;94839.03;5013566;28;20671;-84
2022/01/30 07:15:32;;;;;;;1333.97;617.33;;;;;;;-0.65;67.84;94872.22;5012947;28;20191;-84
2022/01/30 07:17:58;;;;;;;1999.90;999.90;;;;;;;-0.83;67.83;94817.09;5013656;28;20170;-84
2022/01/30 07:20:23;;;;;;;1999.90;999.90;;;;;;;-0.17;66.16;94889.25;5013100;28;20175;-83
2022/01/30 07:22:49;;;;;;;1999.90;999.90;;;;;;;-0.21;66.24;94867.25;5011916;28;20196;-83
2022/01/30 07:25:15;;;;;;;1616.47;807.33;;;;;;;0.03;64.67;94861.50;5013061;28;20574;-83
2022/01/30 07:27:42;;;;;;;1999.90;999.90;;;;;;;0.47;64.53;94875.34;5013284;28;20263;-84
2022/01/30 07:30:08;;;;;;;1637.60;818.63;;;;;;;1.32;61.52;94897.97;5013119;28;20697;-82
2022/01/30 07:32:33;;;;;;;1269.90;734.13;;;;;;;1.89;58.66;94938.84;5012184;28;20180;-82
2022/01/30 07:34:59;;;;;;;1999.90;999.90;;;;;;;1.82;58.31;94939.59;5013020;28;20628;-82
2022/01/30 07:37:25;;;;;;;1999.90;999.90;;;;;;;1.57;58.66;94935.25;5012652;28;20193;-82
2022/01/30 07:39:50;;;;;;;1441.50;729.83;;;;;;;1.06;60.11;94929.91;5013015;28;20226;-83
2022/01/30 07:42:16;;;;;;;1999.90;999.90;;;;;;;0.92;60.23;94912.31;5012866;28;20188;-83
2022/01/30 07:44:41;;;;;;;495.37;304.27;;;;;;;0.62;60.93;94869.50;5012897;28;20220;-83
2022/01/30 07:47:07;;;;;;;726.53;289.87;;;;;;;0.68;60.85;94878.47;5015830;28;20222;-87
2022/01/30 07:49:32;;;;;;;688.30;342.43;;;;;;;0.86;61.50;94940.59;5012891;28;20620;-85
2022/01/30 07:51:58;;;;;;;1999.90;999.90;;;;;;;0.42;62.10;94842.16;5011505;28;20180;-90
2022/01/30 07:54:23;;;;;;;981.57;463.40;;;;;;;1.55;61.33;94932.81;5012785;28;20199;-88
2022/01/30 07:56:49;;;;;;;1416.87;697.47;;;;;;;1.32;59.26;94887.63;5012430;28;20177;-88
2022/01/30 07:59:14;;;;;;;1999.90;999.90;;;;;;;0.89;59.82;94828.88;5013367;28;20636;-88
2022/01/30 08:01:40;;;;;;;1999.90;999.90;;;;;;;1.07;60.08;94846.00;5026094;28;20181;-87
2022/01/30 08:04:08;;;;;;;1999.90;999.90;;;;;;;1.23;60.22;94810.75;5012019;28;20204;-87
2022/01/30 08:06:34;;;;;;;1999.90;999.90;;;;;;;2.68;57.50;94819.84;5015478;28;20181;-88
2022/01/30 08:09:00;;;;;;;536.87;228.30;;;;;;;4.41;50.78;94821.47;5012897;28;20184;-89
2022/01/30 08:11:25;;;;;;;12.03;6.80;;;;;;;6.29;47.74;94851.50;5012569;28;20177;-89
2022/01/30 08:14:23;;;;;;;14.30;7.30;;;;;;;7.65;42.53;94890.53;5012578;28;20184;-90
2022/01/30 08:16:49;;;;;;;15.73;6.60;;;;;;;8.23;42.13;94849.88;5028630;28;20247;-89
2022/01/30 08:19:15;;;;;;;12.47;7.10;;;;;;;9.19;39.90;94824.22;5011428;28;20259;-86
2022/01/30 08:21:41;;;;;;;16.97;7.27;;;;;;;9.58;38.07;94841.78;5014542;28;20710;-86
2022/01/30 08:24:06;;;;;;;14.17;6.87;;;;;;;9.15;37.10;94804.66;5010551;28;20287;-86
2022/01/30 08:26:32;;;;;;;20.23;7.90;;;;;;;8.72;37.27;94850.66;5011988;28;20303;-86
2022/01/30 08:28:57;;;;;;;17.60;7.53;;;;;;;7.95;39.23;94854.44;5011878;28;20183;-86
2022/01/30 08:31:22;;;;;;;16.53;8.20;;;;;;;7.18;40.75;94855.31;5011038;28;20636;-85
2022/01/30 08:33:48;;;;;;;19.90;9.07;;;;;;;6.50;42.35;94847.25;5012013;28;20291;-86
2022/01/30 08:36:13;;;;;;;18.77;7.87;;;;;;;6.69;44.43;94884.09;5012072;28;20573;-86
2022/01/30 08:38:39;;;;;;;13.13;7.53;;;;;;;6.77;43.45;94843.91;5010907;28;20184;-85
2022/01/30 08:41:04;;;;;;;13.00;6.77;;;;;;;6.68;42.28;94821.50;5011384;28;20624;-85
2022/01/30 08:43:30;;;;;;;21.37;7.30;;;;;;;6.63;42.25;94824.69;5010514;28;20204;-85
2022/01/30 08:45:56;;;;;;;17.73;7.43;;;;;;;6.57;42.54;94856.00;5013705;28;20206;-85
2022/01/30 08:48:21;;;;;;;17.70;7.50;;;;;;;6.29;42.59;94825.34;5010973;28;20644;-86
2022/01/30 08:50:48;;;;;;;18.07;8.10;;;;;;;6.27;43.14;94811.66;5027638;28;20176;-88
2022/01/30 08:53:15;;;;;;;16.37;7.90;;;;;;;7.18;43.70;94881.50;5009558;28;20237;-84
2022/01/30 08:55:41;;;;;;;17.90;8.20;;;;;;;7.37;42.37;94859.09;5011486;28;20184;-84
2022/01/30 08:58:10;;;;;;;17.90;9.27;;;;;;;7.94;41.02;94881.63;5011468;28;20264;-84
2022/01/30 09:00:36;;;;;;;21.27;8.80;;;;;;;8.05;41.45;94869.75;5010295;28;20238;-84
2022/01/30 09:03:04;;;;;;;15.80;9.07;;;;;;;8.67;40.58;94891.41;5011029;28;20212;-84
2022/01/30 09:05:30;;;;;;;24.70;8.33;;;;;;;8.57;38.73;94849.00;5018503;28;20183;-84
2022/01/30 09:08:04;;;;;;;18.23;9.07;;;;;;;8.52;38.19;94853.25;5010665;28;20276;-86
2022/01/30 09:10:33;;;;;;;22.23;8.67;;;;;;;8.94;38.80;94891.47;5023700;28;20169;-88
2022/01/30 09:12:58;;;;;;;18.43;8.67;;;;;;;8.48;38.15;94838.88;5013414;28;20695;-83
2022/01/30 09:15:24;;;;;;;20.67;9.23;;;;;;;8.61;37.76;94883.53;5012401;28;20188;-93
2022/01/30 09:17:52;;;;;;;20.03;8.30;;;;;;;8.65;38.19;94892.63;5012362;28;20184;-89
2022/01/30 09:20:17;;;;;;;26.17;9.50;;;;;;;8.24;38.06;94843.63;5011724;28;20612;-87
2022/01/30 09:22:42;;;;;;;26.00;9.30;;;;;;;8.34;38.78;94890.50;5013173;28;20168;-85
2022/01/30 09:25:11;;;;;;;24.87;8.90;;;;;;;8.35;39.22;94897.38;5016300;28;20223;-87
2022/01/30 09:27:37;;;;;;;20.20;9.13;;;;;;;7.88;39.14;94885.81;5017706;28;20250;-86
2022/01/30 09:30:05;;;;;;;18.00;8.87;;;;;;;7.44;41.11;94856.50;5015800;28;20168;-85
2022/01/30 09:32:30;;;;;;;22.03;10.97;;;;;;;6.97;42.27;94820.53;5016091;28;20184;-89
2022/01/30 09:34:56;;;;;;;21.60;11.27;;;;;;;6.71;42.10;94777.47;5016071;28;20187;-93
2022/01/30 09:37:22;;;;;;;18.70;7.73;;;;;;;6.79;41.90;94842.75;5036299;28;20172;-92
2022/01/30 09:39:48;;;;;;;20.77;8.37;;;;;;;6.85;41.74;94799.31;5016198;28;20655;-92
2022/01/30 09:42:17;;;;;;;17.47;8.67;;;;;;;6.78;41.74;94777.53;5018989;28;20239;-89
2022/01/30 09:44:44;;;;;;;15.63;8.33;;;;;;;6.98;42.06;94794.19;5015899;28;20216;-92
2022/01/30 09:47:16;;;;;;;28.47;9.57;;;;;;;7.03;42.17;94811.94;5014343;28;20227;-91
2022/01/30 09:49:51;;;;;;;20.40;8.70;;;;;;;7.01;41.99;94799.03;5011479;28;20189;-87
2022/01/30 09:52:18;;;;;;;19.13;9.13;;;;;;;5.98;41.44;94710.66;5011312;28;20597;-91
2022/01/30 09:54:45;;;;;;;14.20;7.87;;;;;;;5.82;42.70;94694.38;5013205;28;20173;-87
2022/01/30 09:57:11;;;;;;;26.13;7.93;;;;;;;6.18;43.00;94731.75;5014294;28;20691;-91
2022/01/30 09:59:37;;;;;;;18.40;8.50;;;;;;;6.46;42.09;94746.69;5014562;28;20175;-88
2022/01/30 10:02:07;;;;;;;19.90;8.37;;;;;;;6.05;43.38;94714.13;5014394;28;20180;-88
2022/01/30 10:04:33;;;;;;;14.03;7.97;;;;;;;6.38;43.60;94769.34;5016077;28;20188;-89
2022/01/30 10:07:06;;;;;;;15.90;8.97;;;;;;;6.23;43.38;94697.19;5015612;28;20172;-88
2022/01/30 10:09:35;;;;;;;20.37;9.73;;;;;;;6.57;42.67;94756.66;5015598;28;20219;-89
2022/01/30 10:12:15;;;;;;;19.70;8.93;;;;;;;6.16;43.47;94702.38;5025531;28;20192;-87
2022/01/30 10:14:51;;;;;;;23.43;9.47;;;;;;;6.32;43.38;94715.19;5012074;28;20702;-87
2022/01/30 10:17:39;;;;;;;16.33;8.77;;;;;;;6.64;42.87;94760.94;5013859;28;20195;-88
2022/01/30 10:20:08;;;;;;;22.00;9.87;;;;;;;6.73;44.82;94766.84;5013879;28;20168;-83
2022/01/30 10:23:01;;;;;;;16.07;9.23;;;;;;;7.04;46.19;94769.88;5014586;28;20184;-87
2022/01/30 10:25:29;;;;;;;24.00;9.90;;;;;;;7.15;42.15;94785.06;5003664;28;20248;-92
2022/01/30 10:28:11;;;;;;;20.37;9.73;;;;;;;7.13;45.04;94779.19;5015135;28;20176;-92
2022/01/30 10:34:00;;;;;;;22.83;9.37;;;;;;;6.88;42.92;94702.13;5014106;28;20187;-93
2022/01/30 10:36:30;;;;;;;22.00;8.57;;;;;;;6.52;43.06;94659.63;5014727;28;20279;-92
2022/01/30 10:39:12;;;;;;;18.13;8.47;;;;;;;6.88;42.40;94745.81;5014187;28;20281;-92
2022/01/30 10:41:45;;;;;;;19.67;8.33;;;;;;;6.53;44.60;94709.13;5012606;28;20659;-92
2022/01/30 10:44:11;;;;;;;17.20;8.97;;;;;;;6.21;44.31;94707.88;5014790;28;20196;-95
2022/01/30 10:46:45;;;;;;;19.73;7.87;;;;;;;6.32;44.60;94714.38;5014343;28;20183;-93
2022/01/30 10:49:16;;;;;;;15.23;7.87;;;;;;;6.23;45.29;94687.56;5015575;28;20180;-92
2022/01/30 10:52:02;;;;;;;25.30;9.43;;;;;;;6.12;46.00;94646.28;5007484;28;20187;-93
2022/01/30 10:54:32;;;;;;;19.93;8.93;;;;;;;5.96;45.70;94630.88;5013970;28;20180;-91
2022/01/30 10:57:06;;;;;;;15.03;8.20;;;;;;;6.27;45.59;94696.66;5013845;28;20574;-90
2022/01/30 10:59:32;;;;;;;11.27;7.43;;;;;;;6.12;47.18;94708.19;5015236;28;20182;-92
2022/01/30 11:02:11;;;;;;;22.00;9.23;;;;;;;5.81;48.65;94641.34;5017603;28;20180;-89
2022/01/30 11:04:38;;;;;;;16.27;8.33;;;;;;;5.85;47.03;94632.16;5012614;28;20675;-94
2022/01/30 11:07:05;;;;;;;23.80;8.27;;;;;;;6.03;48.42;94678.75;5013299;28;20184;-94
2022/01/30 11:09:39;;;;;;;25.20;8.40;;;;;;;6.21;48.38;94673.09;5014550;28;20667;-89
2022/01/30 11:12:09;;;;;;;19.60;8.80;;;;;;;5.80;47.24;94592.72;5015045;28;20207;-90
2022/01/30 11:14:51;;;;;;;17.97;8.90;;;;;;;6.25;46.13;94650.78;5013924;28;20185;-91
2022/01/30 11:17:19;;;;;;;29.20;9.23;;;;;;;6.01;46.48;94603.19;5013873;28;20192;-91
2022/01/30 11:19:53;;;;;;;23.17;8.43;;;;;;;6.23;48.56;94645.75;5013591;28;20188;-91
2022/01/30 11:22:21;;;;;;;21.17;9.07;;;;;;;5.91;45.89;94583.59;5013073;28;20177;-92
2022/01/30 11:24:59;;;;;;;18.77;8.60;;;;;;;6.31;46.77;94656.06;5013086;28;20251;-91
2022/01/30 11:27:24;;;;;;;17.97;8.73;;;;;;;6.27;48.48;94647.00;5013494;28;20563;-90
2022/01/30 11:29:51;;;;;;;20.87;8.70;;;;;;;6.24;49.97;94604.75;5014222;28;20188;-91
2022/01/30 11:32:19;;;;;;;19.13;9.37;;;;;;;6.66;49.52;94654.28;5015666;28;20494;-91
2022/01/30 11:34:45;;;;;;;15.67;8.67;;;;;;;6.48;46.78;94600.91;5014010;28;20198;-86
2022/01/30 11:37:14;;;;;;;18.87;9.57;;;;;;;6.42;46.66;94578.94;5013572;28;20184;-92
2022/01/30 11:39:49;;;;;;;25.23;9.77;;;;;;;6.94;48.07;94640.38;5014707;28;20184;-91
2022/01/30 11:42:23;;;;;;;21.33;10.03;;;;;;;6.96;47.75;94633.97;5014012;28;20215;-92
2022/01/30 11:45:10;;;;;;;21.80;10.30;;;;;;;6.71;48.11;94570.84;5010655;28;20200;-88
2022/01/30 11:47:46;;;;;;;19.90;9.87;;;;;;;7.07;46.09;94617.72;5011533;28;20195;-93
2022/01/30 11:50:18;;;;;;;21.77;10.80;;;;;;;6.77;46.97;94546.53;5013160;28;20219;-89
2022/01/30 11:52:48;;;;;;;23.20;10.60;;;;;;;6.86;44.46;94544.53;5013215;28;20203;-90
2022/01/30 11:55:43;;;;;;;28.17;11.67;;;;;;;7.25;45.17;94603.28;5013085;28;20279;-89
2022/01/30 11:58:30;;;;;;;23.63;10.47;;;;;;;7.22;44.28;94590.56;5014514;28;20535;-88
2022/01/30 12:00:57;;;;;;;21.10;10.10;;;;;;;6.76;43.43;94518.75;5010316;28;20192;-88
2022/01/30 12:03:32;;;;;;;29.97;9.57;;;;;;;7.16;43.64;94576.47;5013566;28;20617;-86
2022/01/30 12:06:19;;;;;;;25.10;9.93;;;;;;;7.35;43.32;94596.66;5011411;28;20171;-86
2022/01/30 12:08:50;;;;;;;21.07;10.07;;;;;;;6.77;43.35;94515.13;5013076;28;20182;-85
2022/01/30 12:11:50;;;;;;;21.97;9.23;;;;;;;7.18;43.31;94593.56;5011140;28;20188;-83
2022/01/30 12:14:22;;;;;;;21.87;10.63;;;;;;;7.18;42.67;94598.00;5013694;28;20172;-84
2022/01/30 12:16:47;;;;;;;22.40;9.40;;;;;;;7.10;43.24;94582.47;5011867;28;20185;-89